createdAt,value
2019-04-21T00:01:08.526Z,3.70
2019-04-21T00:03:44.139Z,3.53
2019-04-21T00:06:30.952Z,3.90
2019-04-21T00:09:02.350Z,3.60
2019-04-21T00:11:34.307Z,3.77
2019-04-21T00:13:56.143Z,3.70
2019-04-21T00:16:24.672Z,3.67
2019-04-21T00:19:09.277Z,3.70
2019-04-21T00:21:42.668Z,3.40
2019-04-21T00:24:29.222Z,3.63
2019-04-21T00:27:02.467Z,3.50
2019-04-21T00:32:08.596Z,3.80
2019-04-21T00:34:23.622Z,3.80
2019-04-21T00:37:08.301Z,3.70
2019-04-21T00:39:55.782Z,3.80
2019-04-21T00:42:21.619Z,3.80
2019-04-21T00:44:44.299Z,4.17
2019-04-21T00:47:27.304Z,3.67
2019-04-21T00:49:59.109Z,3.53
2019-04-21T00:52:51.026Z,3.90
2019-04-21T00:55:35.553Z,3.90
2019-04-21T00:58:05.241Z,3.70
2019-04-21T01:00:32.346Z,3.50
2019-04-21T01:03:10.937Z,3.83
2019-04-21T01:05:42.774Z,3.70
2019-04-21T01:08:09.965Z,4.00
2019-04-21T01:10:35.872Z,4.27
2019-04-21T01:13:23.587Z,4.10
2019-04-21T01:15:51.503Z,3.80
2019-04-21T01:18:21.786Z,4.20
2019-04-21T01:20:30.770Z,4.80
2019-04-21T01:23:02.307Z,3.70
2019-04-21T01:25:38.176Z,3.90
2019-04-21T01:28:24.579Z,3.40
2019-04-21T01:30:56.836Z,4.43
2019-04-21T01:33:34.930Z,4.13
2019-04-21T01:35:58.077Z,4.20
2019-04-21T01:38:39.849Z,4.23
2019-04-21T01:41:07.074Z,4.10
2019-04-21T01:43:33.694Z,3.97
2019-04-21T01:46:09.280Z,4.10
2019-04-21T01:48:39.123Z,4.13
2019-04-21T01:51:15.555Z,3.73
2019-04-21T01:54:14.736Z,4.37
2019-04-21T01:56:52.395Z,3.97
2019-04-21T01:59:12.778Z,3.87
2019-04-21T02:02:00.423Z,4.30
2019-04-21T02:04:37.000Z,4.20
2019-04-21T02:07:07.396Z,3.83
2019-04-21T02:09:37.992Z,3.90
2019-04-21T02:12:17.263Z,4.30
2019-04-21T02:14:50.503Z,4.67
2019-04-21T02:17:16.271Z,4.40
2019-04-21T02:19:41.027Z,4.27
2019-04-21T02:22:24.134Z,4.47
2019-04-21T02:24:56.646Z,4.20
2019-04-21T02:27:23.785Z,4.60
2019-04-21T02:30:02.708Z,4.27
2019-04-21T02:32:43.869Z,4.07
2019-04-21T02:38:03.913Z,4.20
2019-04-21T02:43:00.253Z,4.07
2019-04-21T02:45:24.489Z,4.17
2019-04-21T02:50:28.747Z,4.23
2019-04-21T02:58:10.003Z,3.77
2019-04-21T03:00:44.913Z,4.67
2019-04-21T03:11:12.244Z,4.53
2019-04-21T03:13:47.157Z,4.17
2019-04-21T03:16:28.417Z,4.80
2019-04-21T03:18:52.454Z,4.30
2019-04-21T03:21:22.184Z,4.60
2019-04-21T03:23:57.535Z,4.37
2019-04-21T03:31:49.649Z,5.27
2019-04-21T03:39:01.349Z,4.63
2019-04-21T03:44:16.860Z,4.57
2019-04-21T03:46:47.280Z,4.60
2019-04-21T03:49:23.158Z,4.67
2019-04-21T03:54:21.250Z,4.60
2019-04-21T03:57:13.094Z,4.53
2019-04-21T03:59:24.918Z,4.40
2019-04-21T04:02:28.317Z,4.20
2019-04-21T04:05:08.935Z,4.37
2019-04-21T04:07:42.291Z,4.30
2019-04-21T04:10:19.568Z,4.07
2019-04-21T04:12:44.338Z,4.00
2019-04-21T04:15:24.296Z,4.23
2019-04-21T04:17:41.022Z,3.87
2019-04-21T04:25:35.402Z,4.27
2019-04-21T04:30:34.050Z,4.30
2019-04-21T04:33:01.264Z,4.20
2019-04-21T04:38:07.023Z,4.47
2019-04-21T04:41:01.811Z,4.53
2019-04-21T04:43:26.944Z,4.03
2019-04-21T04:56:05.899Z,4.43
2019-04-21T04:59:15.948Z,4.00
2019-04-21T05:01:14.696Z,4.10
2019-04-21T05:09:09.425Z,3.70
2019-04-21T05:19:22.858Z,4.00
2019-04-21T05:21:38.691Z,4.23
2019-04-21T05:23:59.884Z,4.03
2019-04-21T05:26:34.547Z,4.00
2019-04-21T05:29:02.024Z,3.90
2019-04-21T05:31:54.753Z,4.40
2019-04-21T05:34:21.967Z,4.03
2019-04-21T05:37:06.079Z,4.40
2019-04-21T05:39:53.502Z,4.90
2019-04-21T05:42:23.672Z,4.63
2019-04-21T05:47:46.288Z,5.30
2019-04-21T05:50:11.553Z,5.43
2019-04-21T05:52:52.009Z,6.00
2019-04-21T05:55:34.330Z,5.57
2019-04-21T05:58:01.291Z,5.90
2019-04-21T06:00:54.644Z,5.10
2019-04-21T06:03:13.459Z,5.17
2019-04-21T06:05:47.854Z,5.27
2019-04-21T06:08:14.611Z,5.30
2019-04-21T06:10:47.294Z,4.90
2019-04-21T06:13:18.749Z,4.90
2019-04-21T06:18:28.912Z,4.60
2019-04-21T06:20:56.893Z,4.40
2019-04-21T06:23:24.074Z,4.97
2019-04-21T06:26:27.030Z,4.70
2019-04-21T06:28:38.144Z,4.60
2019-04-21T06:31:30.718Z,4.80
2019-04-21T06:33:35.725Z,5.10
2019-04-21T06:39:04.983Z,4.40
2019-04-21T06:44:11.834Z,4.30
2019-04-21T06:46:39.330Z,5.00
2019-04-21T06:51:33.769Z,4.33
2019-04-21T06:56:41.053Z,4.67
2019-04-21T06:59:21.039Z,5.17
2019-04-21T07:01:55.298Z,4.70
2019-04-21T07:06:48.175Z,4.23
2019-04-21T07:09:26.914Z,4.80
2019-04-21T07:11:53.865Z,4.90
2019-04-21T07:14:29.359Z,5.30
2019-04-21T07:16:58.121Z,4.77
2019-04-21T07:22:01.127Z,4.30
2019-04-21T07:24:31.276Z,4.40
2019-04-21T07:27:02.840Z,4.17
2019-04-21T07:29:39.533Z,4.30
2019-04-21T07:32:11.761Z,3.97
2019-04-21T07:34:38.283Z,4.60
2019-04-21T07:37:13.939Z,4.50
2019-04-21T07:39:39.093Z,4.87
2019-04-21T07:42:14.334Z,5.03
2019-04-21T07:44:44.762Z,4.67
2019-04-21T07:47:23.510Z,4.47
2019-04-21T07:50:00.921Z,4.67
2019-04-21T07:53:07.004Z,5.07
2019-04-21T07:58:02.576Z,4.37
2019-04-21T08:00:35.860Z,5.47
2019-04-21T08:03:15.915Z,4.67
2019-04-21T08:05:43.964Z,4.80
2019-04-21T08:07:59.658Z,5.20
2019-04-21T08:10:40.493Z,5.27
2019-04-21T08:13:22.135Z,5.00
2019-04-21T08:15:57.734Z,5.30
2019-04-21T08:18:20.320Z,5.50
2019-04-21T08:20:50.167Z,4.77
2019-04-21T08:23:20.430Z,5.07
2019-04-21T08:25:58.934Z,4.80
2019-04-21T08:28:25.936Z,5.00
2019-04-21T08:30:55.482Z,5.47
2019-04-21T08:33:46.574Z,5.00
2019-04-21T08:38:34.415Z,4.60
2019-04-21T08:41:11.066Z,5.10
2019-04-21T08:48:56.675Z,4.90
2019-04-21T08:51:33.342Z,4.90
2019-04-21T08:54:05.577Z,4.80
2019-04-21T08:57:10.397Z,5.10
2019-04-21T08:59:59.851Z,4.90
2019-04-21T09:02:37.251Z,5.37
2019-04-21T09:05:09.462Z,5.43
2019-04-21T09:07:41.721Z,4.80
2019-04-21T09:10:06.334Z,5.37
2019-04-21T09:12:43.124Z,5.10
2019-04-21T09:15:14.151Z,5.40
2019-04-21T09:17:39.204Z,5.20
2019-04-21T09:20:17.334Z,4.93
2019-04-21T09:22:49.283Z,4.87
2019-04-21T09:25:26.532Z,5.47
2019-04-21T09:27:47.128Z,4.93
2019-04-21T09:30:07.391Z,5.23
2019-04-21T09:32:40.303Z,5.07
2019-04-21T09:35:14.822Z,4.73
2019-04-21T09:37:51.676Z,5.30
2019-04-21T09:40:21.722Z,4.97
2019-04-21T09:42:55.996Z,4.43
2019-04-21T09:45:22.450Z,5.07
2019-04-21T09:48:00.834Z,4.70
2019-04-21T09:50:24.678Z,4.77
2019-04-21T09:53:00.244Z,4.70
2019-04-21T09:55:39.068Z,4.97
2019-04-21T09:58:12.661Z,4.57
2019-04-21T10:00:43.558Z,4.50
2019-04-21T10:03:08.409Z,4.20
2019-04-21T10:05:36.137Z,4.27
2019-04-21T10:08:08.179Z,4.60
2019-04-21T10:10:40.002Z,4.87
2019-04-21T10:13:10.663Z,4.63
2019-04-21T10:15:41.945Z,4.50
2019-04-21T10:18:25.112Z,5.87
2019-04-21T10:20:56.957Z,5.00
2019-04-21T10:23:27.522Z,4.50
2019-04-21T10:25:58.734Z,5.10
2019-04-21T10:28:29.306Z,4.90
2019-04-21T10:31:00.776Z,4.70
2019-04-21T10:33:32.534Z,4.50
2019-04-21T10:36:03.028Z,4.73
2019-04-21T10:38:42.360Z,4.83
2019-04-21T10:41:06.074Z,4.83
2019-04-21T10:43:37.518Z,5.00
2019-04-21T10:46:08.771Z,4.33
2019-04-21T10:48:39.448Z,5.20
2019-04-21T10:51:10.729Z,4.40
2019-04-21T10:53:43.334Z,4.47
2019-04-21T10:56:21.843Z,4.93
2019-04-21T10:58:47.503Z,4.53
2019-04-21T11:01:21.032Z,4.80
2019-04-21T11:04:23.554Z,4.75
2019-04-21T11:06:52.694Z,4.53
2019-04-21T11:09:51.985Z,4.62
2019-04-21T11:12:23.914Z,4.50
2019-04-21T11:14:54.487Z,4.85
2019-04-21T11:17:25.928Z,4.60
2019-04-21T11:19:57.044Z,4.43
2019-04-21T11:22:28.496Z,4.60
2019-04-21T11:24:59.046Z,4.27
2019-04-21T11:27:30.941Z,4.10
2019-04-21T11:30:02.354Z,3.93
2019-04-21T11:32:32.848Z,4.40
2019-04-21T11:35:03.360Z,4.47
2019-04-21T11:37:34.863Z,4.20
2019-04-21T11:40:10.770Z,3.83
2019-04-21T11:42:41.752Z,3.73
2019-04-21T11:45:18.665Z,4.40
2019-04-21T11:48:06.146Z,4.13
2019-04-21T11:50:37.084Z,4.00
2019-04-21T11:53:08.410Z,3.83
2019-04-21T11:55:43.157Z,3.73
2019-04-21T11:58:11.913Z,3.70
2019-04-21T12:00:43.496Z,4.10
2019-04-21T12:03:15.320Z,3.63
2019-04-21T12:05:46.153Z,3.50
2019-04-21T12:08:26.306Z,3.83
2019-04-21T12:10:49.289Z,3.50
2019-04-21T12:13:20.414Z,3.53
2019-04-21T12:15:50.942Z,3.73
2019-04-21T12:18:21.988Z,3.37
2019-04-21T12:20:53.785Z,3.40
2019-04-21T12:23:24.651Z,3.77
2019-04-21T12:25:55.141Z,3.27
2019-04-21T12:28:30.102Z,4.10
2019-04-21T12:31:00.124Z,4.10
2019-04-21T12:33:48.243Z,3.97
2019-04-21T12:36:19.824Z,4.30
2019-04-21T12:38:55.798Z,3.73
2019-04-21T12:41:22.732Z,3.80
2019-04-21T12:43:53.122Z,3.93
2019-04-21T12:46:23.515Z,3.80
2019-04-21T12:48:53.992Z,4.07
2019-04-21T12:51:25.853Z,3.87
2019-04-21T12:53:57.429Z,4.37
2019-04-21T12:56:29.408Z,4.05
2019-04-21T12:58:59.906Z,4.25
2019-04-21T13:01:30.891Z,4.25
2019-04-21T13:04:01.804Z,4.35
2019-04-21T13:06:33.759Z,4.10
2019-04-21T13:09:08.581Z,4.27
2019-04-21T13:11:37.208Z,4.35
2019-04-21T13:14:08.258Z,4.30
2019-04-21T13:16:39.272Z,4.58
2019-04-21T13:19:09.744Z,4.90
2019-04-21T13:21:40.451Z,4.57
2019-04-21T13:24:11.687Z,4.15
2019-04-21T13:26:47.219Z,4.12
2019-04-21T13:29:14.854Z,4.22
2019-04-21T13:31:45.326Z,4.53
2019-04-21T13:34:15.929Z,4.57
2019-04-21T13:36:47.724Z,4.30
2019-04-21T13:39:55.502Z,3.87
2019-04-21T13:42:18.048Z,3.73
2019-04-21T13:44:41.319Z,4.07
2019-04-21T13:47:12.498Z,4.07
2019-04-21T13:49:43.425Z,4.10
2019-04-21T13:52:14.983Z,4.20
2019-04-21T13:54:45.591Z,3.83
2019-04-21T13:57:16.705Z,4.20
2019-04-21T13:59:49.392Z,4.33
2019-04-21T14:02:20.706Z,4.13
2019-04-21T14:04:51.808Z,3.53
2019-04-21T14:07:22.327Z,3.63
2019-04-21T14:09:57.554Z,3.80
2019-04-21T14:12:25.394Z,3.90
2019-04-21T14:14:56.563Z,4.03
2019-04-21T14:17:27.140Z,3.63
2019-04-21T14:19:57.438Z,3.60
2019-04-21T14:22:28.325Z,3.97
2019-04-21T14:24:59.755Z,4.00
2019-04-21T14:27:30.232Z,3.70
2019-04-21T14:30:00.732Z,4.17
2019-04-21T14:32:31.845Z,3.43
2019-04-21T14:35:03.091Z,3.60
2019-04-21T14:37:34.815Z,3.70
2019-04-21T14:40:10.738Z,3.97
2019-04-21T14:42:38.570Z,3.70
2019-04-21T14:45:12.773Z,3.58
2019-04-21T14:48:03.188Z,3.70
2019-04-21T14:50:59.992Z,3.77
2019-04-21T14:53:38.136Z,4.17
2019-04-21T14:56:09.097Z,3.90
2019-04-21T14:58:39.687Z,3.90
2019-04-21T15:01:10.450Z,3.70
2019-04-21T15:03:41.690Z,3.70
2019-04-21T15:06:13.478Z,3.30
2019-04-21T15:08:44.918Z,3.93
2019-04-21T15:11:16.081Z,3.83
2019-04-21T15:13:47.987Z,4.17
2019-04-21T15:16:18.756Z,3.43
2019-04-21T15:18:50.494Z,3.60
2019-04-21T15:21:21.622Z,3.60
2019-04-21T15:23:52.074Z,3.97
2019-04-21T15:26:22.492Z,3.57
2019-04-21T15:28:52.946Z,4.00
2019-04-21T15:31:30.615Z,3.43
2019-04-21T15:33:55.532Z,3.60
2019-04-21T15:36:27.219Z,3.73
2019-04-21T15:38:58.057Z,3.50
2019-04-21T15:41:28.525Z,4.10
2019-04-21T15:44:01.270Z,3.70
2019-04-21T15:46:33.885Z,3.73
2019-04-21T15:49:04.931Z,3.50
2019-04-21T15:51:35.788Z,3.67
2019-04-21T15:54:06.856Z,3.70
2019-04-21T15:57:06.866Z,3.70
2019-04-21T15:59:46.809Z,3.40
2019-04-21T16:02:34.884Z,3.53
2019-04-21T16:05:06.605Z,3.90
2019-04-21T16:07:38.076Z,4.10
2019-04-21T16:10:10.657Z,3.90
2019-04-21T16:12:43.556Z,3.70
2019-04-21T16:15:14.633Z,3.67
2019-04-21T16:17:45.621Z,3.50
2019-04-21T16:20:17.711Z,3.77
2019-04-21T16:22:48.662Z,3.10
2019-04-21T16:25:19.165Z,3.13
2019-04-21T16:27:49.521Z,3.10
2019-04-21T16:30:20.100Z,3.30
2019-04-21T16:32:50.562Z,3.67
2019-04-21T16:35:22.136Z,3.30
2019-04-21T16:37:55.754Z,3.10
2019-04-21T16:40:25.781Z,3.30
2019-04-21T16:42:56.365Z,3.37
2019-04-21T16:45:28.533Z,3.30
2019-04-21T16:47:59.244Z,3.07
2019-04-21T16:50:29.883Z,3.57
2019-04-21T16:53:08.327Z,3.20
2019-04-21T16:56:13.217Z,3.13
2019-04-21T16:58:48.409Z,2.70
2019-04-21T17:01:24.199Z,2.80
2019-04-21T17:03:54.795Z,3.10
2019-04-21T17:06:25.285Z,2.77
2019-04-21T17:08:56.760Z,2.73
2019-04-21T17:11:31.685Z,2.50
2019-04-21T17:14:00.516Z,2.70
2019-04-21T17:17:03.996Z,2.63
2019-04-21T17:19:19.142Z,2.83
2019-04-21T17:21:43.683Z,2.52
2019-04-21T17:24:14.588Z,2.83
2019-04-21T17:26:53.219Z,2.87
2019-04-21T17:29:25.985Z,2.70
2019-04-21T17:31:57.328Z,3.27
2019-04-21T17:34:30.134Z,2.77
2019-04-21T17:37:01.245Z,3.00
2019-04-21T17:39:32.008Z,3.23
2019-04-21T17:42:15.291Z,2.63
2019-04-21T17:44:37.382Z,2.97
2019-04-21T17:47:20.098Z,2.83
2019-04-21T17:49:41.125Z,2.90
2019-04-21T17:52:45.971Z,3.00
2019-04-21T17:55:27.323Z,2.67
2019-04-21T17:58:09.602Z,2.57
2019-04-21T18:01:06.522Z,2.63
2019-04-21T18:03:35.988Z,2.67
2019-04-21T18:05:50.269Z,2.80
2019-04-21T18:08:32.567Z,2.40
2019-04-21T18:10:50.368Z,2.63
2019-04-21T18:13:17.344Z,2.70
2019-04-21T18:15:58.680Z,2.60
2019-04-21T18:18:18.711Z,2.67
2019-04-21T18:20:55.094Z,3.20
2019-04-21T18:23:57.427Z,2.77
2019-04-21T18:26:30.352Z,3.30
2019-04-21T18:28:57.181Z,2.93
2019-04-21T18:31:35.329Z,2.70
2019-04-21T18:34:12.716Z,2.80
2019-04-21T18:36:48.657Z,2.70
2019-04-21T18:39:43.325Z,2.80
2019-04-21T18:42:31.239Z,3.03
2019-04-21T18:45:40.273Z,2.50
2019-04-21T18:48:03.800Z,2.50
2019-04-21T18:50:57.044Z,3.00
2019-04-21T18:53:57.197Z,3.23
2019-04-21T18:56:11.280Z,2.50
2019-04-21T18:58:42.408Z,2.60
2019-04-21T19:01:21.999Z,2.60
2019-04-21T19:04:20.416Z,3.63
2019-04-21T19:07:06.715Z,3.67
2019-04-21T19:10:09.872Z,4.10
2019-04-21T19:12:23.648Z,3.60
2019-04-21T19:14:56.650Z,3.10
2019-04-21T19:20:22.273Z,3.23
2019-04-21T19:22:38.732Z,3.10
2019-04-21T19:25:13.105Z,3.10
2019-04-21T19:27:39.981Z,3.10
2019-04-21T19:30:23.460Z,3.10
2019-04-21T19:32:45.422Z,3.17
2019-04-21T19:35:01.881Z,2.80
2019-04-21T19:37:40.166Z,2.70
2019-04-21T19:40:16.137Z,2.50
2019-04-21T19:42:50.332Z,2.60
2019-04-21T19:45:24.809Z,2.37
2019-04-21T19:47:59.447Z,2.90
2019-04-21T19:50:35.042Z,2.50
2019-04-21T19:52:57.386Z,2.83
2019-04-21T19:55:24.248Z,2.53
2019-04-21T19:57:55.029Z,2.80
2019-04-21T20:00:26.585Z,2.80
2019-04-21T20:02:58.627Z,2.60
2019-04-21T20:05:36.080Z,2.83
2019-04-21T20:08:17.424Z,3.20
2019-04-21T20:10:57.430Z,2.90
2019-04-21T20:13:43.683Z,2.43
2019-04-21T20:16:04.004Z,2.50
2019-04-21T20:18:23.251Z,2.87
2019-04-21T20:20:44.084Z,2.70
2019-04-21T20:23:16.925Z,2.43
2019-04-21T20:25:52.148Z,2.43
2019-04-21T20:28:35.287Z,2.50
2019-04-21T20:31:13.016Z,2.60
2019-04-21T20:33:52.672Z,2.60
2019-04-21T20:36:21.137Z,2.73
2019-04-21T20:38:40.445Z,2.60
2019-04-21T20:41:19.708Z,2.77
2019-04-21T20:43:51.324Z,2.73
2019-04-21T20:46:24.673Z,2.60
2019-04-21T20:48:50.954Z,2.50
2019-04-21T20:51:27.382Z,2.47
2019-04-21T20:53:53.736Z,2.70
2019-04-21T20:56:26.910Z,2.80
2019-04-21T20:59:10.947Z,2.67
2019-04-21T21:01:41.267Z,2.50
2019-04-21T21:04:07.484Z,2.27
2019-04-21T21:06:42.418Z,2.77
2019-04-21T21:09:14.305Z,2.43
2019-04-21T21:12:04.094Z,2.30
2019-04-21T21:14:26.316Z,2.30
2019-04-21T21:16:59.303Z,2.50
2019-04-21T21:19:28.591Z,2.50
2019-04-21T21:21:54.009Z,2.43
2019-04-21T21:24:36.466Z,2.63
2019-04-21T21:27:01.934Z,2.33
2019-04-21T21:29:37.038Z,2.27
2019-04-21T21:32:19.557Z,2.37
2019-04-21T21:34:43.472Z,2.30
2019-04-21T21:37:21.651Z,2.30
2019-04-21T21:39:53.759Z,2.60
2019-04-21T21:42:02.707Z,2.47
2019-04-21T21:44:32.523Z,2.57
2019-04-21T21:47:14.415Z,2.70
2019-04-21T21:49:51.311Z,2.50
2019-04-21T21:52:18.266Z,2.70
2019-04-21T21:54:40.103Z,2.60
2019-04-21T21:57:10.672Z,2.57
2019-04-21T21:59:42.170Z,2.40
2019-04-21T22:02:24.147Z,2.70
2019-04-21T22:04:56.862Z,2.90
2019-04-21T22:07:25.730Z,2.90
2019-04-21T22:09:52.385Z,2.50
2019-04-21T22:12:22.980Z,2.80
2019-04-21T22:14:55.467Z,3.00
2019-04-21T22:17:41.990Z,3.07
2019-04-21T22:20:14.002Z,3.07
2019-04-21T22:22:43.860Z,3.57
2019-04-21T22:25:09.630Z,3.27
2019-04-21T22:27:34.987Z,3.30
2019-04-21T22:30:10.839Z,3.77
2019-04-21T22:32:50.225Z,3.50
2019-04-21T22:35:23.694Z,3.63
2019-04-21T22:37:57.052Z,3.80
2019-04-21T22:40:29.514Z,3.67
2019-04-21T22:42:59.400Z,3.50
2019-04-21T22:45:23.141Z,3.63
2019-04-21T22:47:58.726Z,3.67
2019-04-21T22:50:30.791Z,3.80
2019-04-21T22:53:04.735Z,3.87
2019-04-21T22:55:35.316Z,3.90
2019-04-21T22:58:07.484Z,3.83
2019-04-21T23:00:44.449Z,4.00
2019-04-21T23:03:16.419Z,3.90
2019-04-21T23:05:44.507Z,3.80
2019-04-21T23:08:15.151Z,3.70
2019-04-21T23:10:52.341Z,3.77
2019-04-21T23:13:21.930Z,3.87
2019-04-21T23:15:55.367Z,3.83
2019-04-21T23:18:36.051Z,3.73
2019-04-21T23:21:10.396Z,4.03
2019-04-21T23:23:44.175Z,4.10
2019-04-21T23:26:18.179Z,4.07
2019-04-21T23:28:51.943Z,3.40
2019-04-21T23:31:27.222Z,4.30
2019-04-21T23:33:37.276Z,4.00
2019-04-21T23:36:14.948Z,4.30
2019-04-21T23:38:44.125Z,4.70
2019-04-21T23:41:13.128Z,4.37
2019-04-21T23:43:44.805Z,4.33
2019-04-21T23:46:20.350Z,4.23
2019-04-21T23:49:02.428Z,4.00
2019-04-21T23:51:32.733Z,4.17
2019-04-21T23:53:53.413Z,4.30
2019-04-21T23:56:32.293Z,4.40
2019-04-21T23:59:02.632Z,3.90
